Time;durP1;ratioP1;P1;durP2;ratioP2;P2;SDS_P1;SDS_P2;PMS_P1;PMS_P2;Temp;Humidity;BMP_temperature;BMP_pressure;BME280_temperature;BME280_humidity;BME280_pressure;Samples;Min_cycle;Max_cycle;Signal;HPM_P1;HPM_P2
2023/01/02 00:00:08;;;;;;;11.02;2.60;;;;;;;;;;4972423;28;20023;-87
2023/01/02 00:02:34;;;;;;;8.70;2.20;;;;;;;;;;4973189;28;20034;-89
2023/01/02 00:05:00;;;;;;;12.65;2.85;;;;;;;;;;4974314;28;20031;-86
2023/01/02 00:07:26;;;;;;;8.13;2.20;;;14.90;99.90;;;;;;4974061;28;20050;-89
2023/01/02 00:09:52;;;;;;;10.85;2.17;;;;;;;;;;4976159;28;20027;-89
2023/01/02 00:12:18;;;;;;;13.20;2.38;;;;;;;;;;4973228;28;20066;-88
2023/01/02 00:14:44;;;;;;;12.60;2.88;;;;;;;;;;4973387;28;20035;-90
2023/01/02 00:17:10;;;;;;;9.75;2.35;;;;;;;;;;4977927;28;20050;-89
2023/01/02 00:19:36;;;;;;;12.73;2.47;;;;;;;;;;4976646;28;20026;-88
2023/01/02 00:22:02;;;;;;;7.10;1.98;;;;;;;;;;4972152;28;20026;-90
2023/01/02 00:24:28;;;;;;;13.70;2.40;;;;;;;;;;4975661;28;20062;-88
2023/01/02 00:26:54;;;;;;;10.98;2.20;;;;;;;;;;4975223;28;20030;-87
2023/01/02 00:29:20;;;;;;;11.02;2.05;;;;;;;;;;4982196;28;20034;-87
2023/01/02 00:31:46;;;;;;;13.73;2.53;;;;;;;;;;4986351;28;20022;-89
2023/01/02 00:34:12;;;;;;;11.15;2.60;;;;;;;;;;4984706;28;20070;-89
2023/01/02 00:36:38;;;;;;;10.82;2.40;;;;;;;;;;4980355;28;20493;-88
2023/01/02 00:39:04;;;;;;;6.68;1.95;;;;;;;;;;4978959;28;20031;-88
2023/01/02 00:41:30;;;;;;;9.55;2.28;;;;;;;;;;4968238;28;20041;-86
2023/01/02 00:43:56;;;;;;;9.23;2.15;;;;;;;;;;4986121;28;20055;-87
2023/01/02 00:46:22;;;;;;;11.57;3.08;;;;;;;;;;4985053;28;20027;-87
2023/01/02 00:48:48;;;;;;;8.82;2.28;;;;;;;;;;4986613;28;20070;-88
2023/01/02 00:51:14;;;;;;;11.45;2.55;;;;;;;;;;4987677;28;20037;-87
2023/01/02 00:53:40;;;;;;;14.38;2.40;;;;;;;;;;4979479;28;20043;-90
2023/01/02 00:56:06;;;;;;;11.73;2.63;;;;;;;;;;4972900;28;20034;-89
2023/01/02 00:58:32;;;;;;;12.43;2.70;;;;;;;;;;4973698;28;20485;-88
2023/01/02 01:00:58;;;;;;;9.55;2.05;;;;;;;;;;4983076;28;20026;-89
2023/01/02 01:03:24;;;;;;;8.75;2.67;;;;;;;;;;4994261;28;20027;-90
2023/01/02 01:05:53;;;;;;;14.32;3.30;;;;;;;;;;4980165;28;20141;-88
2023/01/02 01:08:22;;;;;;;9.85;2.10;;;14.90;99.90;;;;;;4982704;28;20034;-90
2023/01/02 01:10:51;;;;;;;13.10;3.33;;;;;;;;;;4978716;28;20451;-89
2023/01/02 01:13:17;;;;;;;12.75;2.10;;;;;;;;;;4967105;28;20053;-89
2023/01/02 01:15:43;;;;;;;10.40;2.65;;;;;;;;;;4976372;28;20034;-90
2023/01/02 01:18:09;;;;;;;11.13;2.22;;;;;;;;;;4975309;28;20035;-90
2023/01/02 01:20:38;;;;;;;11.65;2.80;;;14.80;99.90;;;;;;4988788;28;20023;-90
2023/01/02 01:23:05;;;;;;;7.50;2.28;;;;;;;;;;4991927;28;20054;-88
2023/01/02 01:25:31;;;;;;;9.90;2.22;;;;;;;;;;4987934;28;20034;-89
2023/01/02 01:27:57;;;;;;;7.50;2.25;;;;;;;;;;4984948;28;20074;-88
2023/01/02 01:30:23;;;;;;;9.77;2.13;;;;;;;;;;4976824;28;20320;-88
2023/01/02 01:32:49;;;;;;;13.98;2.83;;;;;;;;;;4973241;28;20031;-88
2023/01/02 01:35:15;;;;;;;11.63;2.60;;;;;;;;;;4982345;28;20035;-89
2023/01/02 01:37:41;;;;;;;10.38;2.20;;;;;;;;;;4986994;28;20046;-90
2023/01/02 01:40:07;;;;;;;13.77;2.78;;;;;;;;;;5004600;28;20043;-88
2023/01/02 01:42:34;;;;;;;11.25;2.08;;;;;;;;;;4999463;28;20027;-88
2023/01/02 01:45:00;;;;;;;11.27;2.75;;;;;;;;;;4994292;28;20095;-88
2023/01/02 01:47:36;;;;;;;14.70;2.75;;;14.90;99.90;;;;;;4992285;28;20034;-85
2023/01/02 01:50:17;;;;;;;11.02;2.30;;;14.90;99.90;;;;;;4992583;28;20011;-88
2023/01/02 01:53:02;;;;;;;13.65;2.33;;;14.80;99.90;;;;;;4994763;28;20073;-89
2023/01/02 01:55:36;;;;;;;16.48;2.95;;;14.80;99.90;;;;;;4989264;28;20043;-88
2023/01/02 01:58:32;;;;;;;13.40;2.15;;;14.80;99.90;;;;;;5006230;28;20038;-88
2023/01/02 02:00:58;;;;;;;8.85;2.15;;;;;;;;;;4993574;28;20049;-88
2023/01/02 02:03:27;;;;;;;12.43;2.42;;;14.70;99.90;;;;;;4994438;28;20038;-89
2023/01/02 02:05:53;;;;;;;7.75;2.05;;;;;;;;;;4994238;28;20091;-88
2023/01/02 02:08:19;;;;;;;12.63;2.35;;;;;;;;;;4988127;28;20043;-88
2023/01/02 02:10:45;;;;;;;11.05;1.98;;;14.70;99.90;;;;;;4989871;28;20035;-89
2023/01/02 02:13:11;;;;;;;13.70;2.92;;;;;;;;;;4991402;28;20090;-89
2023/01/02 02:15:56;;;;;;;7.68;2.20;;;14.70;99.90;;;;;;4994897;28;20050;-89
2023/01/02 02:18:34;;;;;;;11.10;2.42;;;;;;;;;;4991517;28;20010;-88
2023/01/02 02:21:10;;;;;;;7.55;1.98;;;14.70;99.90;;;;;;4990452;28;20023;-87
2023/01/02 02:24:11;;;;;;;11.70;2.20;;;14.70;99.90;;;;;;4989112;28;20010;-89
2023/01/02 02:26:55;;;;;;;10.13;2.20;;;;;;;;;;4981975;28;20026;-86
2023/01/02 02:29:40;;;;;;;9.40;2.42;;;;;;;;;;4992006;28;20066;-86
2023/01/02 02:32:06;;;;;;;8.15;2.40;;;;;;;;;;4988162;28;20023;-87
2023/01/02 02:34:47;;;;;;;8.65;2.08;;;14.70;99.90;;;;;;4993616;28;20027;-88
2023/01/02 02:37:12;;;;;;;;;;;14.70;99.90;;;;;;4990118;28;20030;-88
2023/01/02 02:40:03;;;;;;;12.48;2.30;;;14.80;99.90;;;;;;5010151;28;19903;-86
2023/01/02 02:42:41;;;;;;;;;;;14.70;99.90;;;;;;4993999;28;20038;-86
2023/01/02 02:45:31;;;;;;;9.45;2.10;;;14.60;99.90;;;;;;4992669;28;19918;-87
2023/01/02 02:48:19;;;;;;;11.40;2.80;;;14.60;99.90;;;;;;4982851;28;20057;-85
2023/01/02 02:50:58;;;;;;;15.75;2.42;;;;;;;;;;4990879;28;20032;-87
2023/01/02 02:53:28;;;;;;;12.32;2.30;;;14.60;99.90;;;;;;4985633;28;20063;-89
2023/01/02 02:55:58;;;;;;;11.98;3.35;;;14.60;99.90;;;;;;4989949;28;20019;-88
2023/01/02 02:58:28;;;;;;;13.00;2.53;;;14.60;99.90;;;;;;4991351;28;20023;-87
2023/01/02 03:01:17;;;;;;;11.18;2.35;;;14.60;99.90;;;;;;4993161;28;20035;-89
2023/01/02 03:03:43;;;;;;;9.75;2.80;;;;;;;;;;4989865;28;20224;-87
2023/01/02 03:06:18;;;;;;;10.65;2.40;;;14.50;99.90;;;;;;4987444;28;20085;-89
2023/01/02 03:09:07;;;;;;;10.25;2.55;;;14.50;99.90;;;;;;4988679;28;20037;-89
2023/01/02 03:11:54;;;;;;;8.90;2.10;;;14.50;99.90;;;;;;4991914;28;20042;-87
2023/01/02 03:14:35;;;;;;;8.20;2.35;;;14.50;99.90;;;;;;4989333;28;20682;-88
2023/01/02 03:17:02;;;;;;;21.27;3.42;;;;;;;;;;4989728;28;20027;-90
2023/01/02 03:19:31;;;;;;;9.40;2.60;;;;;;;;;;4993818;28;21254;-86
2023/01/02 03:22:08;;;;;;;12.43;2.35;;;14.50;99.90;;;;;;4982529;28;20015;-89
2023/01/02 03:24:36;;;;;;;14.07;3.22;;;13.40;99.90;;;;;;4988849;28;20023;-90
2023/01/02 03:27:06;;;;;;;13.88;2.53;;;14.50;99.90;;;;;;4994496;28;20023;-88
2023/01/02 03:29:43;;;;;;;14.57;2.47;;;;;;;;;;4992467;28;20034;-88
2023/01/02 03:32:15;;;;;;;13.27;2.83;;;;;;;;;;4987917;28;20046;-88
2023/01/02 03:34:44;;;;;;;13.48;2.55;;;14.50;99.90;;;;;;4988443;28;20043;-88
2023/01/02 03:37:14;;;;;;;13.85;2.03;;;14.50;99.90;;;;;;4992829;28;20114;-87
2023/01/02 03:39:44;;;;;;;15.55;2.90;;;;;;;;;;4988113;28;20011;-87
2023/01/02 03:42:26;;;;;;;14.27;3.10;;;14.50;99.90;;;;;;4992335;28;20040;-88
2023/01/02 03:45:16;;;;;;;9.77;2.67;;;14.60;99.90;;;;;;4991574;28;20035;-85
2023/01/02 03:47:51;;;;;;;13.13;2.60;;;;;;;;;;4972805;28;20022;-87
2023/01/02 03:50:23;;;;;;;16.77;2.72;;;14.50;99.90;;;;;;4988605;28;20039;-88
2023/01/02 03:52:49;;;;;;;9.00;2.55;;;;;;;;;;4989966;28;20015;-87
2023/01/02 03:55:16;;;;;;;11.80;2.22;;;;;;;;;;4983760;28;20039;-88
2023/01/02 03:57:45;;;;;;;10.23;2.92;;;;;;;;;;4987748;28;20022;-89
2023/01/02 04:00:16;;;;;;;14.93;2.65;;;14.50;99.90;;;;;;4994270;28;20078;-89
2023/01/02 04:03:01;;;;;;;8.80;2.45;;;14.50;99.90;;;;;;5007142;28;20011;-86
2023/01/02 04:05:30;;;;;;;10.93;2.70;;;;;;;;;;4993518;28;20030;-87
2023/01/02 04:08:04;;;;;;;12.10;2.33;;;;;;;;;;4987696;28;20063;-87
2023/01/02 04:10:30;;;;;;;12.80;2.42;;;;;;;;;;4979459;28;20023;-87
2023/01/02 04:13:01;;;;;;;13.15;2.42;;;14.60;99.90;;;;;;4992295;28;20019;-86
2023/01/02 04:15:31;;;;;;;15.88;2.35;;;;;;;;;;4988591;28;20299;-88
2023/01/02 04:18:01;;;;;;;10.50;2.22;;;14.60;99.90;;;;;;4985990;28;20047;-86
2023/01/02 04:20:29;;;;;;;11.93;2.30;;;;;;;;;;4989726;28;20027;-87
2023/01/02 04:22:59;;;;;;;18.95;2.92;;;;;;;;;;4976925;28;20023;-89
2023/01/02 04:25:32;;;;;;;12.23;2.75;;;14.60;99.90;;;;;;4989624;28;20086;-88
2023/01/02 04:28:21;;;;;;;12.68;2.33;;;14.60;99.90;;;;;;5006763;28;20046;-89
2023/01/02 04:30:55;;;;;;;9.73;2.20;;;14.60;99.90;;;;;;4979275;28;20039;-88
2023/01/02 04:33:24;;;;;;;14.32;2.75;;;14.60;99.90;;;;;;4990406;28;20038;-88
2023/01/02 04:35:50;;;;;;;9.85;2.13;;;;;;;;;;4994468;28;20043;-88
2023/01/02 04:38:17;;;;;;;18.05;2.88;;;;;;;;;;4994520;28;20025;-88
2023/01/02 04:40:44;;;;;;;10.05;2.28;;;;;;;;;;4996259;28;20049;-90
2023/01/02 04:43:18;;;;;;;6.97;1.80;;;14.60;99.90;;;;;;4993932;28;20035;-89
2023/01/02 04:45:44;;;;;;;11.38;2.40;;;;;;;;;;4988359;28;20059;-87
2023/01/02 04:48:10;;;;;;;13.40;1.95;;;;;;;;;;4994253;28;20027;-89
2023/01/02 04:50:36;;;;;;;13.25;2.92;;;;;;;;;;4992346;28;20019;-89
2023/01/02 04:53:02;;;;;;;9.93;2.53;;;;;;;;;;4990413;28;20030;-88
2023/01/02 04:55:29;;;;;;;14.68;2.75;;;;;;;;;;4994318;28;20054;-88
2023/01/02 04:57:56;;;;;;;12.05;2.30;;;14.70;99.90;;;;;;4992789;28;20106;-88
2023/01/02 05:00:22;;;;;;;9.45;2.33;;;;;;;;;;4991521;28;20023;-89
2023/01/02 05:02:48;;;;;;;13.57;2.13;;;;;;;;;;4995092;28;20025;-89
2023/01/02 05:05:14;;;;;;;11.30;2.05;;;;;;;;;;4994532;28;20046;-88
2023/01/02 05:07:40;;;;;;;10.70;2.78;;;;;;;;;;4988017;28;20023;-88
2023/01/02 05:10:06;;;;;;;11.63;2.38;;;14.60;99.90;;;;;;4986126;28;20043;-87
2023/01/02 05:12:34;;;;;;;12.85;2.50;;;14.60;99.90;;;;;;4996993;28;20027;-88
2023/01/02 05:15:00;;;;;;;13.85;2.25;;;;;;;;;;4995791;28;20054;-89
2023/01/02 05:17:26;;;;;;;12.63;2.63;;;;;;;;;;4990896;28;20045;-88
2023/01/02 05:19:52;;;;;;;12.40;2.33;;;;;;;;;;4991356;28;20043;-88
2023/01/02 05:25:02;;;;;;;10.35;2.22;;;14.80;99.90;;;;;;4989828;28;20037;-88
2023/01/02 05:27:28;;;;;;;10.32;2.35;;;;;;;;;;5008577;28;20049;-89
2023/01/02 05:29:54;;;;;;;11.75;2.38;;;;;;;;;;4993603;28;20065;-88
2023/01/02 05:32:20;;;;;;;13.65;2.05;;;;;;;;;;4988150;28;20039;-88
2023/01/02 05:34:46;;;;;;;15.88;2.58;;;;;;;;;;4990890;28;20079;-88
2023/01/02 05:37:12;;;;;;;10.65;2.20;;;;;;;;;;4992618;28;20058;-89
2023/01/02 05:39:38;;;;;;;14.27;2.38;;;;;;;;;;4990066;28;20372;-89
2023/01/02 05:42:04;;;;;;;9.95;2.08;;;;;;;;;;4992691;28;20022;-88
2023/01/02 05:44:30;;;;;;;15.43;2.38;;;;;;;;;;4976302;28;20034;-87
2023/01/02 05:46:56;;;;;;;6.97;1.90;;;;;;;;;;4992009;28;20115;-86
2023/01/02 05:49:22;;;;;;;13.15;2.50;;;;;;;;;;4991156;28;20066;-86
2023/01/02 05:51:48;;;;;;;10.20;2.00;;;;;;;;;;4989096;28;20114;-87
2023/01/02 05:54:14;;;;;;;15.55;3.60;;;;;;;;;;4992461;28;20043;-88
2023/01/02 05:56:40;;;;;;;12.02;2.92;;;;;;;;;;4987179;28;20011;-88
2023/01/02 05:59:07;;;;;;;13.68;2.35;;;14.50;99.90;;;;;;4984470;28;20026;-90
2023/01/02 06:01:33;;;;;;;9.00;2.17;;;;;;;;;;4969429;28;20038;-88
2023/01/02 06:03:59;;;;;;;20.25;3.53;;;14.50;99.90;;;;;;4988884;28;20047;-88
2023/01/02 06:06:33;;;;;;;17.60;2.70;;;14.50;99.90;;;;;;4986480;28;20054;-89
2023/01/02 06:08:59;;;;;;;11.80;2.53;;;;;;;;;;4992095;28;20023;-89
2023/01/02 06:11:26;;;;;;;11.05;2.05;;;;;;;;;;4984889;28;20035;-89
2023/01/02 06:13:52;;;;;;;16.02;2.40;;;;;;;;;;4984004;28;20030;-90
2023/01/02 06:16:19;;;;;;;12.52;2.97;;;;;;;;;;4989174;28;20257;-89
2023/01/02 06:18:45;;;;;;;13.52;2.10;;;;;;;;;;4981246;28;20074;-87
2023/01/02 06:21:13;;;;;;;13.45;2.92;;;14.50;99.90;;;;;;4979649;28;20030;-87
2023/01/02 06:23:39;;;;;;;13.38;2.47;;;;;;;;;;4985067;28;20022;-88
2023/01/02 06:26:09;;;;;;;11.15;2.30;;;;;;;;;;4990486;28;20011;-87
2023/01/02 06:28:35;;;;;;;10.03;2.53;;;;;;;;;;4994216;28;20014;-89
2023/01/02 06:31:03;;;;;;;14.30;2.65;;;14.30;99.90;;;;;;4989458;28;20049;-88
2023/01/02 06:33:29;;;;;;;10.77;2.28;;;;;;;;;;4992268;28;20015;-89
2023/01/02 06:36:05;;;;;;;10.23;2.83;;;14.30;99.90;;;;;;4988203;28;20026;-89
2023/01/02 06:38:31;;;;;;;11.70;2.22;;;;;;;;;;4990993;28;20019;-87
2023/01/02 06:40:59;;;;;;;11.77;2.53;;;14.20;99.90;;;;;;4991607;28;20019;-88
2023/01/02 06:43:26;;;;;;;12.30;2.05;;;14.20;99.90;;;;;;4988981;28;20015;-87
2023/01/02 06:45:52;;;;;;;8.38;2.55;;;;;;;;;;4986699;28;20027;-87
2023/01/02 06:48:18;;;;;;;11.57;2.60;;;;;;;;;;4976335;28;20035;-90
2023/01/02 06:50:45;;;;;;;15.27;3.15;;;14.20;99.90;;;;;;4975739;28;20310;-89
2023/01/02 06:53:11;;;;;;;8.55;2.90;;;;;;;;;;4985633;28;20102;-87
2023/01/02 06:55:37;;;;;;;13.05;2.70;;;;;;;;;;4985075;28;20031;-88
2023/01/02 06:58:03;;;;;;;10.23;2.70;;;;;;;;;;4983830;28;20011;-89
2023/01/02 07:00:29;;;;;;;15.48;2.58;;;;;;;;;;4985541;28;20031;-87
2023/01/02 07:02:55;;;;;;;11.05;2.45;;;;;;;;;;4984867;28;20082;-89
2023/01/02 07:05:21;;;;;;;13.48;2.70;;;;;;;;;;4992710;28;20038;-87
2023/01/02 07:07:47;;;;;;;12.27;2.45;;;;;;;;;;4988333;28;20026;-88
2023/01/02 07:10:13;;;;;;;10.80;2.40;;;;;;;;;;5005725;28;20019;-89
2023/01/02 07:12:39;;;;;;;16.95;2.70;;;;;;;;;;4982947;28;20016;-89
2023/01/02 07:15:06;;;;;;;13.10;2.22;;;13.70;99.90;;;;;;4988386;28;20026;-87
2023/01/02 07:17:32;;;;;;;10.98;3.10;;;13.70;99.90;;;;;;4988440;28;20034;-88
2023/01/02 07:19:58;;;;;;;8.98;2.30;;;;;;;;;;4984520;28;20027;-88
2023/01/02 07:22:25;;;;;;;13.15;3.20;;;;;;;;;;4984710;28;20027;-88
2023/01/02 07:24:51;;;;;;;11.68;3.05;;;;;;;;;;4977533;28;20043;-89
2023/01/02 07:27:17;;;;;;;8.00;2.85;;;13.80;99.90;;;;;;4988620;28;20042;-88
2023/01/02 07:29:43;;;;;;;10.98;2.60;;;;;;;;;;4987138;28;20030;-87
2023/01/02 07:32:09;;;;;;;9.13;2.42;;;;;;;;;;4983680;28;20148;-87
2023/01/02 07:34:35;;;;;;;9.90;2.42;;;;;;;;;;4978669;28;20059;-86
2023/01/02 07:37:01;;;;;;;11.05;2.60;;;;;;;;;;4980602;28;20054;-85
2023/01/02 07:39:33;;;;;;;9.13;2.40;;;;;;;;;;4983281;28;20030;-88
2023/01/02 07:41:59;;;;;;;10.98;2.28;;;;;;;;;;4984211;28;20035;-87
2023/01/02 07:44:28;;;;;;;10.90;2.55;;;;;;;;;;4981982;28;20019;-87
2023/01/02 07:46:54;;;;;;;8.20;2.70;;;;;;;;;;4985023;28;20027;-88
2023/01/02 07:49:20;;;;;;;13.88;2.67;;;;;;;;;;4983993;28;20032;-87
2023/01/02 07:51:46;;;;;;;12.50;2.90;;;;;;;;;;4990861;28;20111;-86
2023/01/02 07:54:14;;;;;;;8.55;2.22;;;;;;;;;;4994517;28;20039;-87
2023/01/02 07:56:43;;;;;;;11.27;2.30;;;;;;;;;;4990606;28;20022;-89
2023/01/02 07:59:16;;;;;;;11.15;2.30;;;;;;;;;;4994523;28;20023;-86
2023/01/02 08:01:42;;;;;;;9.63;2.38;;;;;;;;;;4985973;28;20019;-88
2023/01/02 08:04:08;;;;;;;11.50;2.72;;;;;;;;;;4981124;28;20031;-87
2023/01/02 08:06:34;;;;;;;10.57;2.70;;;;;;;;;;4998384;28;20034;-87
2023/01/02 08:09:00;;;;;;;11.10;2.67;;;;;;;;;;4990429;28;20030;-85
2023/01/02 08:11:26;;;;;;;12.68;2.60;;;;;;;;;;4983416;28;20022;-86
2023/01/02 08:13:52;;;;;;;10.18;2.58;;;;;;;;;;4983043;28;20039;-89
2023/01/02 08:16:19;;;;;;;12.50;2.78;;;;;;;;;;4986029;28;20015;-86
2023/01/02 08:18:46;;;;;;;8.73;2.50;;;;;;;;;;4987971;28;20023;-87
2023/01/02 08:21:12;;;;;;;12.45;2.72;;;;;;;;;;4986573;28;20034;-85
2023/01/02 08:23:38;;;;;;;16.92;2.88;;;;;;;;;;5002176;28;20016;-84
2023/01/02 08:26:06;;;;;;;11.98;2.60;;;;;;;;;;4992221;28;20026;-87
2023/01/02 08:28:32;;;;;;;12.70;3.10;;;;;;;;;;4984290;28;20031;-86
2023/01/02 08:30:59;;;;;;;16.50;3.55;;;;;;;;;;4988995;28;20090;-88
2023/01/02 08:33:25;;;;;;;12.43;2.67;;;;;;;;;;4990421;28;20084;-87
2023/01/02 08:35:51;;;;;;;8.90;3.22;;;;;;;;;;4989947;28;20046;-87
2023/01/02 08:38:17;;;;;;;15.18;3.00;;;;;;;;;;4992846;28;20033;-87
2023/01/02 08:40:43;;;;;;;15.45;2.97;;;;;;;;;;4994354;28;20035;-87
2023/01/02 08:43:09;;;;;;;8.60;2.42;;;;;;;;;;4988847;28;20026;-84
2023/01/02 08:45:35;;;;;;;13.65;3.17;;;;;;;;;;4987669;28;20030;-86
2023/01/02 08:48:01;;;;;;;10.98;2.50;;;;;;;;;;4992378;28;20045;-84
2023/01/02 08:50:28;;;;;;;12.82;2.70;;;;;;;;;;4993385;28;20018;-88
2023/01/02 08:52:54;;;;;;;12.77;2.75;;;;;;;;;;5007496;28;20039;-86
2023/01/02 08:55:20;;;;;;;7.68;2.70;;;;;;;;;;4993952;28;20035;-86
2023/01/02 08:57:46;;;;;;;10.85;2.47;;;;;;;;;;4986140;28;20042;-84
2023/01/02 09:00:12;;;;;;;9.35;2.90;;;;;;;;;;4987314;28;20031;-85
2023/01/02 09:02:38;;;;;;;14.15;2.50;;;;;;;;;;4985384;28;20079;-89
2023/01/02 09:05:04;;;;;;;11.60;3.08;;;;;;;;;;4982993;28;20035;-85
2023/01/02 09:07:33;;;;;;;15.77;3.38;;;;;;;;;;4982031;28;20027;-85
2023/01/02 09:10:05;;;;;;;11.80;2.70;;;;;;;;;;4985436;28;20073;-83
2023/01/02 09:28:05;;;;;;;10.30;2.85;;;12.70;99.90;;;;;;4994405;28;20069;-91
2023/01/02 09:30:31;;;;;;;11.90;3.60;;;;;;;;;;4981041;28;20462;-89
2023/01/02 09:32:57;;;;;;;10.48;3.47;;;;;;;;;;4999056;28;20808;-91
2023/01/02 09:35:23;;;;;;;10.02;2.83;;;;;;;;;;4998904;28;20045;-88
2023/01/02 09:37:51;;;;;;;11.38;3.25;;;;;;;;;;4997792;28;20040;-89
2023/01/02 09:40:23;;;;;;;15.40;3.50;;;;;;;;;;5007016;28;20034;-91
2023/01/02 09:42:55;;;;;;;15.63;3.78;;;;;;;;;;4986421;28;20476;-89
2023/01/02 09:45:27;;;;;;;15.88;3.63;;;;;;;;;;5003478;28;20026;-89
2023/01/02 09:48:01;;;;;;;12.85;2.97;;;;;;;;;;4977527;28;20032;-89
2023/01/02 09:50:33;;;;;;;12.80;3.80;;;;;;;;;;4996935;28;20033;-89
2023/01/02 09:53:03;;;;;;;14.68;3.97;;;;;;;;;;5000919;28;20030;-90
2023/01/02 09:55:37;;;;;;;13.77;3.15;;;;;;;;;;4981756;28;20031;-88
2023/01/02 09:58:25;;;;;;;16.65;3.17;;;;;;;;;;4991054;28;20041;-88
2023/01/02 10:00:52;;;;;;;10.32;3.25;;;;;;;;;;4992074;28;20058;-89
2023/01/02 10:03:23;;;;;;;8.07;2.63;;;;;;;;;;4980947;28;20054;-89
2023/01/02 10:06:22;;;;;;;17.50;3.03;;;12.20;99.90;;;;;;4994308;28;20031;-90
2023/01/02 10:09:15;;;;;;;11.35;4.07;;;12.20;99.90;;;;;;4991719;28;20029;-88
2023/01/02 10:12:10;;;;;;;12.20;3.67;;;12.10;99.90;;;;;;5005167;28;20428;-89
2023/01/02 10:14:39;;;;;;;15.27;3.88;;;;;;;;;;4985047;28;20881;-92
2023/01/02 10:17:14;;;;;;;11.88;3.67;;;;;;;;;;4986247;28;20476;-91
2023/01/02 10:20:01;;;;;;;12.98;3.33;;;;;;;;;;4989781;28;20062;-87
2023/01/02 10:22:38;;;;;;;11.10;3.28;;;;;;;;;;4986946;28;20019;-89
2023/01/02 10:25:10;;;;;;;15.15;3.10;;;;;;;;;;4986331;28;20042;-90
2023/01/02 10:27:45;;;;;;;11.35;2.92;;;;;;;;;;4996796;28;20034;-89
2023/01/02 10:30:14;;;;;;;14.18;4.35;;;;;;;;;;5000709;28;20030;-89
2023/01/02 10:32:43;;;;;;;10.80;3.33;;;;;;;;;;4985178;28;20117;-90
2023/01/02 10:35:14;;;;;;;11.50;3.88;;;;;;;;;;4983181;28;20034;-88
2023/01/02 10:37:42;;;;;;;9.50;3.58;;;;;;;;;;4998888;28;20018;-87
2023/01/02 10:40:09;;;;;;;14.02;3.72;;;;;;;;;;5013408;28;20022;-87
2023/01/02 10:42:41;;;;;;;11.65;4.05;;;;;;;;;;5007057;28;20246;-89
2023/01/02 10:56:03;;;;;;;11.45;3.28;;;;;;;;;;5051098;28;20041;-88
2023/01/02 10:58:33;;;;;;;23.95;4.53;;;;;;;;;;5029129;28;20022;-88
2023/01/02 11:01:37;;;;;;;10.65;3.65;;;;;;;;;;5030584;28;20026;-89
2023/01/02 11:04:09;;;;;;;10.85;3.95;;;;;;;;;;5047958;28;20056;-88
2023/01/02 11:06:38;;;;;;;11.57;3.15;;;;;;;;;;5036089;28;20143;-90
2023/01/02 11:09:28;;;;;;;12.35;4.13;;;12.10;99.90;;;;;;5034418;28;20033;-90
2023/01/02 11:12:13;;;;;;;7.57;3.00;;;12.10;99.90;;;;;;5031807;28;20026;-90
2023/01/02 11:14:45;;;;;;;12.60;3.90;;;;;;;;;;5035531;28;20092;-91
2023/01/02 11:17:22;;;;;;;13.93;3.35;;;;;;;;;;5042372;28;20025;-90
2023/01/02 11:19:53;;;;;;;10.68;3.53;;;;;;;;;;5046332;28;20025;-91
2023/01/02 11:25:03;;;;;;;10.98;3.75;;;;;;;;;;5025158;28;20065;-89
2023/01/02 11:27:35;;;;;;;11.85;3.75;;;11.90;99.90;;;;;;5021438;28;20022;-88
2023/01/02 11:33:13;;;;;;;11.82;3.33;;;11.90;99.90;;;;;;5023721;28;20084;-89
2023/01/02 11:35:45;;;;;;;9.30;3.45;;;;;;;;;;5025363;28;20113;-90
2023/01/02 11:38:21;;;;;;;11.35;3.95;;;;;;;;;;5025119;28;20010;-90
2023/01/02 11:41:01;;;;;;;13.13;3.50;;;;;;;;;;5022976;28;20089;-89
2023/01/02 11:43:48;;;;;;;10.40;3.53;;;11.80;99.90;;;;;;5025924;28;20092;-89
2023/01/02 12:36:17;;;;;;;10.30;3.22;;;11.90;99.90;;;;;;5009379;28;20392;-85
2023/01/02 15:10:14;;;;;;;2.03;1.20;;;;;;;;;;5010974;23;20076;-87
2023/01/02 15:13:03;;;;;;;3.45;1.38;;;;;;;;;;5020376;28;20041;-86
2023/01/02 15:49:03;;;;;;;4.05;1.80;;;10.70;99.90;;;;;;5023414;28;20046;-86
2023/01/02 15:51:30;;;;;;;1.60;1.08;;;10.70;99.90;;;;;;5020977;28;20021;-85
2023/01/02 15:53:57;;;;;;;5.75;3.25;;;10.60;99.90;;;;;;5006604;28;20026;-86
2023/01/02 15:56:33;;;;;;;4.25;1.70;;;10.60;99.90;;;;;;5006731;28;20106;-87
2023/01/02 15:59:00;;;;;;;2.38;1.10;;;10.60;99.90;;;;;;5018281;28;20026;-88
2023/01/02 16:01:26;;;;;;;2.72;1.30;;;10.60;99.90;;;;;;5021361;28;20125;-87
2023/01/02 16:03:59;;;;;;;2.67;1.27;;;10.60;99.90;;;;;;4994250;28;20466;-85
2023/01/02 16:06:31;;;;;;;4.57;1.60;;;10.60;99.90;;;;;;5002047;28;20447;-88
2023/01/02 16:08:59;;;;;;;4.22;1.90;;;10.60;99.90;;;;;;5005561;28;20089;-84
2023/01/02 16:11:25;;;;;;;2.30;1.30;;;10.60;99.90;;;;;;5009001;28;20102;-87
2023/01/02 16:16:52;;;;;;;2.55;1.50;;;10.60;99.90;;;;;;4996937;28;20130;-85
2023/01/02 16:19:30;;;;;;;2.80;1.20;;;10.60;99.90;;;;;;4992570;28;20350;-86
2023/01/02 16:22:10;;;;;;;3.10;1.63;;;10.60;99.90;;;;;;5002003;28;20042;-84
2023/01/02 16:24:42;;;;;;;2.17;1.08;;;10.60;99.90;;;;;;5000651;28;20027;-83
2023/01/02 16:27:21;;;;;;;4.95;1.35;;;10.60;99.90;;;;;;5003355;28;20036;-88
2023/01/02 16:29:49;;;;;;;4.57;2.08;;;10.60;99.90;;;;;;5004264;28;20060;-87
2023/01/02 16:32:29;;;;;;;4.97;1.70;;;10.70;99.90;;;;;;5014263;28;20517;-86
2023/01/02 16:35:36;;;;;;;2.30;1.30;;;10.60;99.90;;;;;;5001761;28;20107;-88
2023/01/02 16:38:02;;;;;;;2.63;1.00;;;;;;;;;;4989730;28;20121;-87
2023/01/02 16:40:27;;;;;;;2.58;1.15;;;10.60;99.90;;;;;;5001057;28;20104;-85
2023/01/02 16:43:01;;;;;;;1.85;1.13;;;;;;;;;;5001568;28;20026;-87
2023/01/02 16:45:29;;;;;;;1.52;1.17;;;10.60;99.90;;;;;;4998239;28;20086;-88
2023/01/02 16:47:55;;;;;;;1.75;0.90;;;;;;;;;;5002208;28;20085;-87
2023/01/02 16:50:23;;;;;;;2.20;1.10;;;;;;;;;;4998966;28;20030;-83
2023/01/02 16:52:49;;;;;;;2.13;1.00;;;;;;;;;;4999988;28;20029;-85
2023/01/02 16:55:17;;;;;;;3.22;1.63;;;10.60;99.90;;;;;;5002331;28;20566;-83
2023/01/02 16:57:44;;;;;;;2.70;1.42;;;;;;;;;;5015068;28;20022;-85
2023/01/02 17:00:11;;;;;;;2.72;1.60;;;10.50;99.90;;;;;;5009497;28;20102;-86
2023/01/02 17:02:37;;;;;;;2.88;1.40;;;10.50;99.90;;;;;;5000477;28;20109;-83
2023/01/02 17:05:21;;;;;;;3.03;1.50;;;10.40;99.90;;;;;;5000333;28;20062;-85
2023/01/02 17:07:47;;;;;;;2.60;1.30;;;;;;;;;;5005842;28;20031;-87
2023/01/02 17:10:13;;;;;;;3.03;1.40;;;;;;;;;;5007662;28;20048;-83
2023/01/02 17:12:39;;;;;;;2.40;1.33;;;;;;;;;;5004175;28;20117;-87
2023/01/02 17:15:06;;;;;;;3.35;1.70;;;10.50;99.90;;;;;;5007759;28;20037;-84
2023/01/02 17:17:32;;;;;;;5.10;2.20;;;10.50;99.90;;;;;;5000444;28;20113;-85
2023/01/02 17:19:58;;;;;;;4.65;2.30;;;10.50;99.90;;;;;;5000932;28;20085;-85
2023/01/02 17:22:24;;;;;;;2.70;1.35;;;10.40;99.90;;;;;;5001163;28;20121;-84
2023/01/02 17:24:50;;;;;;;7.20;3.20;;;;;;;;;;5000623;28;20038;-85
2023/01/02 17:27:16;;;;;;;1.75;1.10;;;;;;;;;;5004563;28;20100;-89
2023/01/02 17:29:41;;;;;;;3.22;1.70;;;10.40;99.90;;;;;;4996279;28;20038;-85
2023/01/02 17:32:07;;;;;;;2.47;1.40;;;;;;;;;;4998588;28;20041;-85
2023/01/02 17:34:33;;;;;;;8.70;1.83;;;10.40;99.90;;;;;;4996620;28;20034;-85
2023/01/02 17:36:59;;;;;;;1.92;1.10;;;10.30;99.90;;;;;;4999022;28;20162;-82
2023/01/02 17:39:25;;;;;;;4.55;1.45;;;10.40;99.90;;;;;;4994995;28;20018;-85
2023/01/02 17:41:51;;;;;;;3.85;1.63;;;;;;;;;;4997148;28;20042;-86
2023/01/02 17:44:17;;;;;;;2.05;1.20;;;;;;;;;;4996706;28;20026;-85
2023/01/02 17:46:44;;;;;;;2.28;1.20;;;10.20;99.90;;;;;;5000588;28;20137;-84
2023/01/02 17:49:10;;;;;;;2.60;1.17;;;10.20;99.90;;;;;;5005538;28;20031;-83
2023/01/02 17:51:37;;;;;;;2.25;1.30;;;;;;;;;;5005165;28;20065;-87
2023/01/02 17:54:03;;;;;;;3.88;1.98;;;10.30;99.90;;;;;;4999793;28;20116;-84
2023/01/02 17:56:30;;;;;;;1.63;1.00;;;10.30;99.90;;;;;;4999172;28;20023;-84
2023/01/02 17:58:57;;;;;;;2.95;1.40;;;10.30;99.90;;;;;;4996149;28;20038;-85
2023/01/02 18:01:24;;;;;;;2.45;1.42;;;10.30;99.90;;;;;;5001792;28;20050;-84
2023/01/02 18:03:50;;;;;;;2.80;1.30;;;10.30;99.90;;;;;;5002263;28;20053;-86
2023/01/02 18:06:16;;;;;;;1.95;1.17;;;10.30;99.90;;;;;;5003146;28;20064;-83
2023/01/02 18:08:43;;;;;;;2.58;1.58;;;;;;;;;;5001268;28;20031;-83
2023/01/02 18:11:11;;;;;;;4.68;2.35;;;10.40;99.90;;;;;;4995645;28;20046;-84
2023/01/02 18:13:53;;;;;;;3.17;1.70;;;10.30;99.90;;;;;;4999059;28;20026;-84
2023/01/02 18:16:25;;;;;;;4.90;2.50;;;10.20;99.90;;;;;;4999574;28;20265;-83
2023/01/02 18:18:52;;;;;;;2.30;1.30;;;10.20;99.90;;;;;;5009342;28;20026;-86
2023/01/02 18:21:27;;;;;;;4.07;2.00;;;10.10;99.90;;;;;;4996616;28;20027;-85
2023/01/02 18:23:56;;;;;;;3.05;1.60;;;10.10;99.90;;;;;;5001104;28;20041;-84
2023/01/02 18:26:22;;;;;;;3.92;1.80;;;;;;;;;;4995083;28;20034;-82
2023/01/02 18:28:57;;;;;;;4.28;2.50;;;10.10;99.90;;;;;;5000296;28;20042;-86
2023/01/02 18:31:30;;;;;;;8.98;3.10;;;10.10;99.90;;;;;;4999532;28;20090;-86
2023/01/02 18:34:01;;;;;;;3.58;1.52;;;10.20;99.90;;;;;;5002704;28;20533;-85
2023/01/02 18:36:28;;;;;;;3.53;1.90;;;10.20;99.90;;;;;;4998092;28;20036;-85
2023/01/02 18:39:11;;;;;;;6.45;2.05;;;10.00;99.90;;;;;;5000692;28;20387;-87